Time;durP1;ratioP1;P1;durP2;ratioP2;P2;SDS_P1;SDS_P2;PMS_P1;PMS_P2;Temp;Humidity;BMP_temperature;BMP_pressure;BME280_temperature;BME280_humidity;BME280_pressure;Samples;Min_cycle;Max_cycle;Signal;HPM_P1;HPM_P2
2021/12/17 00:51:05;;;;;;;5.53;4.95;;;;;;;;;;4135877;34;20191;-70
2021/12/17 00:53:25;;;;;;;;;;;;;;;;;;4123550;34;20127;-64
2021/12/17 00:55:51;;;;;;;5.45;4.70;;;;;;;;;;4123572;34;19999;-64
2021/12/17 00:58:18;;;;;;;7.30;5.05;;;;;;;;;;4124502;34;20131;-64
2021/12/17 01:00:45;;;;;;;6.57;4.68;;;;;;;;;;4111937;34;20236;-64
2021/12/17 01:03:11;;;;;;;5.25;4.75;;;;;;;;;;4124401;34;20630;-64
2021/12/17 01:05:37;;;;;;;5.40;4.62;;;;;;;;;;4124404;34;20124;-64
2021/12/17 01:08:04;;;;;;;4.75;4.35;;;;;;;;;;4124319;34;20432;-64
2021/12/17 01:10:34;;;;;;;4.55;4.15;;;;;;;;;;4124295;34;20208;-65
2021/12/17 01:13:00;;;;;;;5.30;4.80;;;;;;;;;;4112046;34;20119;-64
2021/12/17 01:15:27;;;;;;;5.53;5.00;;;;;;;;;;4124286;34;20124;-64
2021/12/17 01:17:58;;;;;;;5.40;4.90;;;;;;;;;;4124345;34;20130;-64
2021/12/17 01:23:07;;;;;;;5.28;4.60;;;;;;;;;;4136929;34;20116;-64
2021/12/17 01:36:24;;;;;;;4.90;4.40;;;;;;;;;;4137558;34;20127;-63
2021/12/17 01:43:49;;;;;;;5.10;4.55;;;;;;;;;;4137591;34;20099;-64
2021/12/17 01:46:20;;;;;;;5.25;4.75;;;;;;;;;;4137375;34;20115;-63
2021/12/17 01:55:48;;;;;;;5.50;5.00;;;;;;;;;;4137151;34;20555;-64
2021/12/17 02:00:00;;;;;;;5.35;4.85;;;;;;;;;;4111353;34;20475;-63
2021/12/17 02:02:30;;;;;;;4.70;4.20;;;;;;;;;;4124024;34;20191;-63
2021/12/17 02:04:56;;;;;;;4.90;4.40;;;;;;;;;;4123764;34;20116;-69
2021/12/17 02:07:22;;;;;;;5.15;4.65;;;;;;;;;;4111476;34;20138;-69
2021/12/17 02:31:40;;;;;;;5.90;5.30;;;;;;;;;;4137250;34;20103;-70
2021/12/17 02:36:56;;;;;;;5.12;4.62;;;;;;;;;;4115141;34;20095;-70
2021/12/17 02:47:33;;;;;;;7.00;5.68;;;;;;;;;;4137034;34;20095;-70
2021/12/17 02:49:59;;;;;;;6.47;5.60;;;;;;;;;;4136870;34;20472;-70
2021/12/17 02:52:29;;;;;;;6.07;5.47;;;;;;;;;;4136939;34;20228;-70
2021/12/17 02:54:57;;;;;;;6.60;5.90;;;;;;;;;;4124275;34;20138;-70
2021/12/17 02:57:25;;;;;;;7.53;6.75;;;;;;;;;;4124480;34;20111;-70
2021/12/17 02:59:51;;;;;;;6.93;6.22;;;;;;;;;;4124560;34;20100;-70
2021/12/17 03:02:18;;;;;;;6.57;5.72;;;;;;;;;;4124262;34;20501;-72
2021/12/17 03:04:44;;;;;;;7.35;6.50;;;;;;;;;;4124264;34;20523;-72
2021/12/17 03:07:11;;;;;;;7.60;6.25;;;;;;;;;;4136822;34;20181;-71
2021/12/17 03:12:22;;;;;;;7.12;6.30;;;;;;;;;;4135879;34;20103;-71
2021/12/17 03:14:57;;;;;;;8.98;6.60;;;;;;;;;;4113817;34;20595;-71
2021/12/17 03:25:33;;;;;;;6.75;6.05;;;;;;;;;;4124174;34;20545;-71
2021/12/17 03:27:59;;;;;;;7.22;6.22;;;;;;;;;;4136666;34;20138;-73
2021/12/17 03:30:25;;;;;;;6.82;6.22;;;;;;;;;;4136562;34;20224;-70
2021/12/17 03:32:51;;;;;;;7.28;6.57;;;;;;;;;;4124015;34;20731;-71
2021/12/17 03:35:17;;;;;;;7.07;6.28;;;;;;;;;;4136399;34;20192;-71
2021/12/17 03:37:46;;;;;;;7.25;6.45;;;;;;;;;;4136483;34;20126;-73
2021/12/17 03:40:15;;;;;;;6.65;5.95;;;;;;;;;;4135071;34;20540;-73
2021/12/17 03:42:46;;;;;;;6.45;5.80;;;;;;;;;;4124106;34;20442;-71
2021/12/17 03:45:13;;;;;;;7.18;6.28;;;;;;;;;;4136493;34;20464;-72
2021/12/17 03:47:39;;;;;;;6.10;5.47;;;;;;;;;;4136582;34;20204;-71
2021/12/17 03:50:06;;;;;;;5.75;5.12;;;;;;;;;;4136415;34;20201;-72
2021/12/17 03:52:32;;;;;;;7.45;6.15;;;;;;;;;;4136522;34;20184;-73
2021/12/17 03:54:58;;;;;;;6.70;5.68;;;;;;;;;;4123931;34;20115;-72
2021/12/17 03:57:27;;;;;;;6.35;5.75;;;;;;;;;;4124063;34;20126;-73
2021/12/17 03:59:53;;;;;;;9.27;5.90;;;;;;;;;;4136272;34;20092;-73
2021/12/17 04:02:19;;;;;;;6.28;5.68;;;;;;;;;;4136359;34;20504;-63
2021/12/17 04:04:45;;;;;;;6.72;6.03;;;;;;;;;;4136441;34;20102;-64
2021/12/17 04:07:11;;;;;;;6.70;6.00;;;;;;;;;;4136262;34;20103;-68
2021/12/17 04:09:37;;;;;;;6.35;5.75;;;;;;;;;;4136339;34;20525;-68
2021/12/17 04:12:08;;;;;;;6.12;5.53;;;;;;;;;;4136141;34;20085;-68
2021/12/17 04:14:43;;;;;;;6.53;5.50;;;;;;;;;;4123496;34;20544;-67
2021/12/17 04:17:10;;;;;;;6.90;6.20;;;;;;;;;;4136315;34;20113;-71
2021/12/17 04:19:36;;;;;;;6.82;5.53;;;;;;;;;;4136003;34;20123;-69
2021/12/17 04:22:03;;;;;;;5.80;5.20;;;;;;;;;;4123499;34;20490;-72
2021/12/17 04:24:29;;;;;;;6.87;5.90;;;;;;;;;;4123529;34;20131;-68
2021/12/17 04:26:55;;;;;;;6.32;5.57;;;;;;;;;;4135964;34;20118;-73
2021/12/17 04:29:24;;;;;;;8.65;6.68;;;;;;;;;;4136303;34;20164;-65
2021/12/17 04:31:54;;;;;;;7.22;6.53;;;;;;;;;;4137903;34;20214;-64
2021/12/17 04:34:20;;;;;;;6.43;5.68;;;;;;;;;;4137820;34;20130;-66
2021/12/17 04:36:49;;;;;;;5.68;5.07;;;;;;;;;;4125385;34;20304;-66
2021/12/17 04:39:17;;;;;;;6.68;5.97;;;;;;;;;;4125456;34;20115;-65
2021/12/17 04:42:04;;;;;;;5.95;5.40;;;;;;;;;;4137875;34;20099;-66
2021/12/17 04:44:34;;;;;;;6.00;5.35;;;;;;;;;;4137883;34;20534;-66
2021/12/17 04:57:52;;;;;;;6.25;5.65;;;;;;;;;;4127479;34;20129;-67
2021/12/17 05:00:22;;;;;;;6.45;5.53;;;;;;;;;;4136664;34;20111;-67
2021/12/17 05:02:51;;;;;;;6.10;5.50;;;;;;;;;;4137726;34;20111;-73
2021/12/17 05:05:19;;;;;;;5.85;5.25;;;;;;;;;;4103315;34;20227;-71
2021/12/17 05:07:52;;;;;;;5.80;5.18;;;;;;;;;;4137690;34;20441;-73
2021/12/17 05:18:37;;;;;;;6.62;5.85;;;;;;;;;;4137474;34;20126;-70
2021/12/17 05:21:07;;;;;;;7.28;6.55;;;;;;;;;;4137703;34;20207;-71
2021/12/17 05:23:37;;;;;;;8.10;6.10;;;;;;;;;;4137481;34;20526;-66
2021/12/17 05:26:06;;;;;;;7.10;5.87;;;;;;;;;;4125240;34;20099;-73
2021/12/17 05:28:33;;;;;;;7.60;6.90;;;;;;;;;;4125196;34;20206;-70
2021/12/17 05:30:59;;;;;;;6.45;5.85;;;;;;;;;;4137567;34;20110;-72
2021/12/17 05:33:26;;;;;;;6.82;6.12;;;;;;;;;;4137749;34;20095;-72
2021/12/17 05:35:53;;;;;;;6.70;6.07;;;;;;;;;;4114250;34;20204;-73
2021/12/17 05:38:21;;;;;;;6.65;5.97;;;;;;;;;;4124872;34;20122;-72
2021/12/17 05:40:48;;;;;;;6.75;5.90;;;;;;;;;;4137147;34;20498;-69
2021/12/17 05:43:15;;;;;;;7.87;6.15;;;;;;;;;;4124969;34;20147;-68
2021/12/17 05:48:10;;;;;;;7.20;6.50;;;;;;;;;;4125060;34;20115;-70
2021/12/17 05:50:38;;;;;;;6.97;6.28;;;;;;;;;;4113870;34;20491;-69
2021/12/17 05:53:05;;;;;;;6.82;6.10;;;;;;;;;;4124692;34;20186;-69
2021/12/17 05:55:31;;;;;;;7.43;6.72;;;;;;;;;;4137311;34;20127;-70
2021/12/17 05:57:58;;;;;;;6.37;5.62;;;;;;;;;;4124766;34;20111;-68
2021/12/17 06:00:24;;;;;;;7.47;6.78;;;;;;;;;;4125171;34;20209;-69
2021/12/17 06:02:50;;;;;;;7.10;6.40;;;;;;;;;;4137118;34;20119;-69
2021/12/17 06:05:17;;;;;;;7.68;6.85;;;;;;;;;;4137099;34;20640;-68
2021/12/17 06:07:43;;;;;;;6.90;6.20;;;;;;;;;;4124669;34;20096;-69
2021/12/17 06:10:12;;;;;;;7.12;6.43;;;;;;;;;;4136774;34;20095;-70
2021/12/17 06:12:38;;;;;;;6.72;6.03;;;;;;;;;;4137166;34;20099;-70
2021/12/17 06:15:06;;;;;;;7.20;6.43;;;;;;;;;;4136426;34;20222;-69
2021/12/17 06:17:32;;;;;;;7.97;6.37;;;;;;;;;;4136948;34;20102;-69
2021/12/17 06:19:58;;;;;;;8.43;7.45;;;;;;;;;;4137317;34;20547;-69
2021/12/17 06:22:24;;;;;;;7.35;6.57;;;;;;;;;;4137104;34;20096;-70
2021/12/17 06:24:52;;;;;;;7.80;6.28;;;;;;;;;;4137048;34;20099;-69
2021/12/17 06:27:19;;;;;;;6.95;5.03;;;;;;;;;;4137128;34;20119;-69
2021/12/17 06:29:46;;;;;;;7.20;6.35;;;;;;;;;;4137099;34;20130;-69
2021/12/17 06:32:12;;;;;;;8.02;6.95;;;;;;;;;;4124653;34;20111;-69
2021/12/17 06:34:39;;;;;;;7.78;6.97;;;;;;;;;;4124713;34;20127;-70
2021/12/17 06:37:05;;;;;;;6.97;6.25;;;;;;;;;;4137000;34;20130;-69
2021/12/17 06:39:32;;;;;;;6.70;6.00;;;;;;;;;;4124298;34;20088;-70
2021/12/17 06:41:59;;;;;;;7.15;6.45;;;;;;;;;;4124445;34;20505;-70
2021/12/17 06:44:26;;;;;;;9.25;6.43;;;;;;;;;;4124481;34;20208;-69
2021/12/17 06:55:01;;;;;;;7.22;6.53;;;;;;;;;;4136908;34;20426;-69
2021/12/17 07:06:06;;;;;;;7.50;6.60;;;;;;;;;;4136871;34;20119;-70
2021/12/17 07:35:40;;;;;;;6.37;5.78;;;;;;;;;;4099037;34;20134;-69
2021/12/17 07:40:51;;;;;;;6.93;5.90;;;;;;;;;;4136461;34;20099;-68
2021/12/17 07:43:33;;;;;;;6.75;6.15;;;;;;;;;;4136393;34;20102;-69
2021/12/17 07:45:59;;;;;;;6.60;5.93;;;;;;;;;;4136245;34;20107;-69
2021/12/17 07:48:25;;;;;;;6.55;5.95;;;;;;;;;;4136402;34;20109;-69
2021/12/17 07:50:51;;;;;;;6.75;5.70;;;;;;;;;;4123950;34;20219;-69
2021/12/17 07:53:17;;;;;;;6.55;5.80;;;;;;;;;;4136393;34;20118;-69
2021/12/17 07:55:43;;;;;;;6.12;5.53;;;;;;;;;;4136321;34;20612;-69
2021/12/17 07:58:10;;;;;;;6.62;5.93;;;;;;;;;;4136325;34;20190;-69
2021/12/17 08:00:36;;;;;;;7.35;6.22;;;;;;;;;;4136370;34;20135;-69
2021/12/17 08:03:02;;;;;;;7.62;6.85;;;;;;;;;;4123945;34;20458;-70
2021/12/17 08:05:28;;;;;;;7.85;6.68;;;;;;;;;;4123464;34;20636;-70
2021/12/17 08:07:54;;;;;;;6.60;5.72;;;;;;;;;;4136198;34;20216;-70
2021/12/17 08:10:20;;;;;;;6.40;5.57;;;;;;;;;;4136233;34;20143;-72
2021/12/17 08:12:46;;;;;;;6.22;5.62;;;;;;;;;;4123483;34;20140;-69
2021/12/17 08:15:13;;;;;;;7.07;5.43;;;;;;;;;;4136027;34;20130;-70
2021/12/17 08:24:04;;;;;;;7.28;6.28;;;;;;;;;;4135673;34;20127;-71
2021/12/17 08:26:16;;;;;;;7.30;6.60;;;;;;;;;;4135789;34;20125;-71
2021/12/17 08:31:41;;;;;;;7.20;6.47;;;;;;;;;;4120136;34;20213;-69
2021/12/17 08:34:07;;;;;;;7.45;6.62;;;;;;;;;;4135694;34;20251;-70
2021/12/17 08:36:33;;;;;;;8.68;7.80;;;;;;;;;;4136219;34;20107;-70
2021/12/17 08:38:59;;;;;;;7.65;6.85;;;;;;;;;;4136196;34;20110;-71
2021/12/17 08:41:27;;;;;;;7.75;6.95;;;;;;;;;;4136481;34;20504;-70
2021/12/17 08:43:53;;;;;;;8.05;7.25;;;;;;;;;;4136228;34;20109;-70
2021/12/17 08:46:19;;;;;;;8.00;7.12;;;;;;;;;;4135918;34;20119;-70
2021/12/17 08:48:45;;;;;;;7.72;6.93;;;;;;;;;;4135718;34;20134;-70
2021/12/17 08:51:11;;;;;;;7.93;7.12;;;;;;;;;;4135880;34;20549;-70
2021/12/17 08:53:38;;;;;;;8.45;7.62;;;;;;;;;;4135913;34;20107;-70
2021/12/17 08:56:04;;;;;;;8.27;7.28;;;;;;;;;;4135830;34;20132;-70
2021/12/17 08:58:31;;;;;;;7.55;6.80;;;;;;;;;;4135660;34;20494;-70
2021/12/17 09:00:58;;;;;;;7.65;6.85;;;;;;;;;;4135557;34;20111;-69
2021/12/17 09:03:24;;;;;;;8.15;7.30;;;;;;;;;;4135602;34;20559;-70
2021/12/17 09:05:50;;;;;;;8.18;7.37;;;;;;;;;;4123155;34;20128;-72
2021/12/17 09:08:16;;;;;;;7.37;6.68;;;;;;;;;;4135526;34;20127;-71
2021/12/17 09:10:47;;;;;;;8.52;7.62;;;;;;;;;;4123150;34;20134;-72
2021/12/17 09:13:13;;;;;;;8.98;7.45;;;;;;;;;;4123559;34;20103;-72
2021/12/17 09:15:39;;;;;;;9.27;6.75;;;;;;;;;;4123259;34;20107;-72
2021/12/17 09:18:06;;;;;;;9.52;7.65;;;;;;;;;;4125256;34;20228;-72
2021/12/17 09:20:32;;;;;;;8.68;7.78;;;;;;;;;;4137601;34;20119;-72
2021/12/17 09:22:58;;;;;;;7.47;6.50;;;;;;;;;;4124874;34;20191;-72
2021/12/17 09:25:24;;;;;;;8.00;7.20;;;;;;;;;;4125226;34;20100;-73
2021/12/17 09:27:50;;;;;;;8.25;6.97;;;;;;;;;;4137533;34;20200;-72
2021/12/17 09:30:18;;;;;;;7.90;7.10;;;;;;;;;;4124965;34;20522;-69
2021/12/17 09:32:44;;;;;;;7.72;6.72;;;;;;;;;;4125115;34;20208;-71
2021/12/17 09:35:11;;;;;;;8.25;6.72;;;;;;;;;;4137325;34;20098;-71
2021/12/17 09:37:38;;;;;;;8.00;6.75;;;;;;;;;;4137565;34;20508;-71
2021/12/17 09:40:06;;;;;;;7.62;6.93;;;;;;;;;;4124851;34;20211;-72
2021/12/17 09:42:33;;;;;;;7.07;6.22;;;;;;;;;;4125057;34;20535;-70
2021/12/17 09:44:59;;;;;;;7.57;6.78;;;;;;;;;;4137547;34;20100;-70
2021/12/17 09:47:26;;;;;;;7.70;7.00;;;;;;;;;;4137506;34;20095;-64
2021/12/17 09:49:54;;;;;;;8.63;7.12;;;;;;;;;;4137340;34;20107;-65
2021/12/17 09:52:20;;;;;;;7.28;6.57;;;;;;;;;;4137363;34;20115;-65
2021/12/17 09:54:46;;;;;;;7.15;6.40;;;;;;;;;;4135668;34;20104;-64
2021/12/17 09:57:12;;;;;;;7.22;6.45;;;;;;;;;;4134394;34;20107;-64
2021/12/17 09:59:39;;;;;;;6.60;5.68;;;;;;;;;;4136985;34;20222;-65
2021/12/17 10:02:06;;;;;;;7.25;6.55;;;;;;;;;;4137312;34;20472;-65
2021/12/17 10:04:32;;;;;;;7.87;6.30;;;;;;;;;;4137344;34;20084;-65
2021/12/17 10:07:36;;;;;;;7.20;6.12;;;;;;;;;;4137260;34;20106;-65
2021/12/17 10:10:05;;;;;;;6.55;5.90;;;;;;;;;;4136105;34;20533;-65
2021/12/17 10:12:36;;;;;;;6.47;5.87;;;;;;;;;;4124446;34;20208;-65
2021/12/17 10:15:12;;;;;;;5.80;5.30;;;;;;;;;;4137074;34;20231;-65
2021/12/17 10:17:55;;;;;;;5.87;5.15;;;;;;;;;;4124950;34;20119;-65
2021/12/17 10:20:22;;;;;;;5.82;5.20;;;;;;;;;;4137056;34;20477;-65
2021/12/17 10:23:00;;;;;;;6.40;5.80;;;;;;;;;;4137079;34;20115;-64
2021/12/17 10:25:28;;;;;;;6.53;5.62;;;;;;;;;;4124625;34;20099;-65
2021/12/17 10:28:03;;;;;;;5.62;5.05;;;;;;;;;;4137137;34;20112;-65
2021/12/17 10:30:34;;;;;;;7.57;6.78;;;;;;;;;;4137059;34;20488;-65
2021/12/17 10:33:03;;;;;;;6.20;5.45;;;;;;;;;;4124629;34;20545;-65
2021/12/17 10:35:33;;;;;;;6.90;5.18;;;;;;;;;;4137196;34;20212;-63
2021/12/17 10:38:05;;;;;;;6.28;5.00;;;;;;;;;;4136964;34;20131;-63
2021/12/17 10:40:44;;;;;;;6.95;5.60;;;;;;;;;;4136975;34;20096;-66
2021/12/17 10:43:24;;;;;;;6.53;5.82;;;;;;;;;;4137056;34;20138;-64
2021/12/17 10:46:01;;;;;;;5.70;5.15;;;;;;;;;;4136906;34;20118;-64
2021/12/17 10:51:14;;;;;;;6.45;5.85;;;;;;;;;;4137166;34;20114;-63
2021/12/17 10:53:45;;;;;;;6.15;5.40;;;;;;;;;;4136997;34;20126;-63
2021/12/17 10:56:15;;;;;;;7.18;5.87;;;;;;;;;;4136798;34;20127;-64
2021/12/17 10:59:01;;;;;;;6.07;5.43;;;;;;;;;;4124102;34;20545;-63
2021/12/17 11:01:46;;;;;;;6.53;5.45;;;;;;;;;;4136722;34;20108;-63
2021/12/17 11:04:26;;;;;;;6.72;6.03;;;;;;;;;;4124476;34;20119;-62
2021/12/17 11:06:55;;;;;;;6.15;5.53;;;;;;;;;;4136799;34;20119;-64
2021/12/17 11:09:57;;;;;;;6.37;5.78;;;;;;;;;;4136500;34;20199;-64
2021/12/17 11:12:23;;;;;;;6.18;5.57;;;;;;;;;;4136802;34;20513;-64
2021/12/17 11:14:52;;;;;;;6.55;5.85;;;;;;;;;;4136547;34;20226;-63
2021/12/17 11:17:22;;;;;;;8.15;6.10;;;;;;;;;;4136587;34;20110;-63
2021/12/17 11:19:54;;;;;;;7.00;6.25;;;;;;;;;;4136537;34;20107;-63
2021/12/17 11:22:23;;;;;;;7.25;6.47;;;;;;;;;;4124107;34;20123;-62
2021/12/17 11:24:50;;;;;;;8.25;6.50;;;;;;;;;;4124237;34;20193;-62
2021/12/17 11:27:16;;;;;;;6.78;5.87;;;;;;;;;;4136508;34;20095;-63
2021/12/17 11:29:42;;;;;;;7.22;6.00;;;;;;;;;;4136573;34;20173;-63
2021/12/17 11:32:09;;;;;;;6.37;5.78;;;;;;;;;;4136573;34;20197;-65
2021/12/17 11:34:35;;;;;;;7.97;6.62;;;;;;;;;;4136399;34;20113;-64
2021/12/17 11:37:04;;;;;;;8.38;6.75;;;;;;;;;;4123927;34;20127;-63
2021/12/17 11:39:37;;;;;;;8.10;6.18;;;;;;;;;;4135914;34;20119;-63
2021/12/17 11:42:37;;;;;;;6.50;5.80;;;;;;;;;;4136414;34;20138;-63
2021/12/17 11:45:23;;;;;;;7.12;5.87;;;;;;;;;;4136606;34;20220;-63
2021/12/17 11:47:51;;;;;;;10.00;6.07;;;;;;;;;;4136344;34;20115;-63
2021/12/17 11:50:17;;;;;;;6.90;6.00;;;;;;;;;;4136295;34;20119;-63
2021/12/17 11:52:50;;;;;;;6.82;5.53;;;;;;;;;;4136437;34;20551;-62
2021/12/17 11:55:34;;;;;;;6.53;5.82;;;;;;;;;;4136228;34;20312;-64
2021/12/17 11:58:09;;;;;;;6.62;5.90;;;;;;;;;;4136482;34;20091;-64
2021/12/17 12:00:41;;;;;;;8.02;6.90;;;;;;;;;;4136277;34;20215;-64
2021/12/17 12:03:22;;;;;;;6.82;6.12;;;;;;;;;;4136355;34;20099;-64
2021/12/17 12:05:59;;;;;;;7.05;6.30;;;;;;;;;;4136315;34;20092;-63
2021/12/17 12:09:05;;;;;;;7.95;6.82;;;;;;;;;;4136310;34;20119;-63
2021/12/17 12:11:27;;;;;;;6.65;5.97;;;;;;;;;;4136001;34;20111;-65
2021/12/17 12:13:54;;;;;;;6.60;5.93;;;;;;;;;;4132301;34;20115;-63
2021/12/17 12:16:26;;;;;;;6.68;6.07;;;;;;;;;;4136120;34;20110;-68
2021/12/17 12:19:05;;;;;;;5.85;5.07;;;;;;;;;;4135476;34;20500;-70
2021/12/17 12:21:37;;;;;;;8.43;5.97;;;;;;;;;;4135339;34;20127;-69
2021/12/17 12:24:08;;;;;;;6.20;5.60;;;;;;;;;;4113159;34;20145;-69
2021/12/17 12:26:38;;;;;;;5.95;5.35;;;;;;;;;;4135855;34;20186;-68
2021/12/17 12:29:10;;;;;;;5.90;5.22;;;;;;;;;;4123342;34;20444;-68
2021/12/17 12:31:37;;;;;;;6.37;5.70;;;;;;;;;;4122284;34;20127;-67
2021/12/17 12:34:12;;;;;;;6.37;5.18;;;;;;;;;;4122393;34;20106;-69
2021/12/17 12:36:44;;;;;;;7.57;6.15;;;;;;;;;;4125711;34;20099;-69
2021/12/17 12:39:27;;;;;;;7.12;5.70;;;;;;;;;;4122684;34;20110;-69
2021/12/17 12:41:57;;;;;;;6.45;5.50;;;;;;;;;;4135825;34;20099;-70
2021/12/17 12:44:41;;;;;;;5.97;5.37;;;;;;;;;;4134902;34;20190;-69
2021/12/17 12:47:08;;;;;;;6.93;5.35;;;;;;;;;;4136350;34;20268;-70
2021/12/17 12:49:54;;;;;;;6.50;5.90;;;;;;;;;;4122179;34;20194;-69
2021/12/17 12:52:21;;;;;;;;;;;;;;;;;;4135462;34;20108;-71
2021/12/17 12:54:51;;;;;;;6.60;5.75;;;;;;;;;;4125379;34;19989;-69
2021/12/17 12:57:32;;;;;;;6.72;5.15;;;;;;;;;;4114568;34;20087;-69
2021/12/17 13:00:01;;;;;;;6.35;4.97;;;;;;;;;;4124986;34;20091;-69
2021/12/17 13:02:27;;;;;;;6.05;5.22;;;;;;;;;;4135442;34;20118;-69
2021/12/17 13:04:55;;;;;;;6.18;5.35;;;;;;;;;;4124224;34;20115;-69
2021/12/17 13:07:34;;;;;;;7.47;6.78;;;;;;;;;;4132827;34;20187;-70
2021/12/17 13:10:08;;;;;;;5.15;4.65;;;;;;;;;;4124949;34;20532;-68
2021/12/17 13:12:37;;;;;;;5.82;4.53;;;;;;;;;;4130912;34;20207;-69
2021/12/17 13:23:22;;;;;;;5.80;5.20;;;;;;;;;;4125340;34;20125;-70
2021/12/17 13:26:11;;;;;;;6.43;5.03;;;;;;;;;;4137802;34;20118;-71
2021/12/17 13:28:54;;;;;;;6.15;4.47;;;;;;;;;;4137730;34;20529;-71
2021/12/17 13:31:44;;;;;;;4.82;4.40;;;;;;;;;;4124955;34;20207;-70
2021/12/17 13:34:34;;;;;;;4.45;3.97;;;;;;;;;;4124558;34;20139;-70
2021/12/17 13:37:24;;;;;;;4.78;4.28;;;;;;;;;;4124706;34;20128;-71
2021/12/17 13:40:04;;;;;;;5.90;4.90;;;;;;;;;;4136768;34;20138;-71
2021/12/17 13:42:38;;;;;;;5.53;5.03;;;;;;;;;;4124640;34;20123;-71
2021/12/17 13:45:05;;;;;;;6.50;4.55;;;;;;;;;;4124466;34;20104;-71
2021/12/17 13:47:36;;;;;;;6.20;4.65;;;;;;;;;;4137420;34;20444;-70
2021/12/17 13:50:28;;;;;;;7.12;5.97;;;;;;;;;;4137154;34;20111;-70
2021/12/17 13:53:00;;;;;;;9.43;7.05;;;;;;;;;;4125075;34;20122;-69
2021/12/17 13:55:31;;;;;;;5.20;4.70;;;;;;;;;;4133003;34;20546;-70
2021/12/17 13:57:59;;;;;;;5.65;4.55;;;;;;;;;;4136077;34;20098;-70
2021/12/17 14:00:46;;;;;;;5.62;4.90;;;;;;;;;;4124423;34;20118;-69
2021/12/17 14:03:15;;;;;;;5.40;4.78;;;;;;;;;;4124230;34;20131;-69
2021/12/17 14:05:48;;;;;;;5.60;5.00;;;;;;;;;;4123708;34;20127;-69
2021/12/17 14:08:17;;;;;;;6.35;5.07;;;;;;;;;;4125071;34;20138;-69
2021/12/17 14:10:44;;;;;;;5.45;4.55;;;;;;;;;;4124556;34;20583;-69
2021/12/17 14:13:23;;;;;;;5.93;5.32;;;;;;;;;;4124216;34;20118;-68
2021/12/17 14:15:50;;;;;;;5.32;4.82;;;;;;;;;;4136377;34;20192;-69
2021/12/17 14:18:22;;;;;;;5.10;4.50;;;;;;;;;;4124192;34;20116;-69
2021/12/17 14:20:53;;;;;;;6.72;4.30;;;;;;;;;;4136795;34;20091;-68
2021/12/17 14:23:24;;;;;;;5.60;4.53;;;;;;;;;;4116542;34;20632;-69
2021/12/17 14:25:53;;;;;;;4.97;4.47;;;;;;;;;;4133433;34;20110;-69
2021/12/17 14:28:23;;;;;;;4.75;4.20;;;;;;;;;;4112338;34;20134;-69
2021/12/17 14:31:00;;;;;;;5.15;4.12;;;;;;;;;;4112664;34;20115;-70
2021/12/17 14:33:35;;;;;;;4.87;4.37;;;;;;;;;;4125115;34;20123;-68
2021/12/17 14:36:03;;;;;;;4.87;4.03;;;;;;;;;;4136541;34;20222;-69
2021/12/17 14:38:37;;;;;;;5.00;4.30;;;;;;;;;;4124690;34;20114;-69
2021/12/17 14:41:04;;;;;;;5.28;4.60;;;;;;;;;;4136633;34;20122;-69
2021/12/17 14:43:33;;;;;;;6.15;4.95;;;;;;;;;;4135304;34;20092;-69
2021/12/17 14:46:15;;;;;;;7.15;6.45;;;;;;;;;;4122545;34;20165;-69
2021/12/17 15:00:20;;;;;;;4.80;4.15;;;;;;;;;;4136641;34;20135;-70
2021/12/17 15:04:50;;;;;;;4.70;4.20;;;;;;;;;;4135511;34;20117;-69
2021/12/17 15:07:18;;;;;;;5.62;4.50;;;;;;;;;;4123794;34;20198;-68
2021/12/17 15:09:46;;;;;;;5.15;4.65;;;;;;;;;;4136511;34;20125;-67
2021/12/17 15:12:35;;;;;;;5.28;4.78;;;;;;;;;;4135821;34;20115;-70
2021/12/17 15:15:00;;;;;;;4.90;4.35;;;;;;;;;;4134249;34;20115;-71
2021/12/17 15:17:26;;;;;;;4.90;4.40;;;;;;;;;;4111020;34;20112;-68
2021/12/17 15:19:52;;;;;;;5.18;4.62;;;;;;;;;;4122515;34;20109;-68
2021/12/17 15:22:18;;;;;;;5.18;4.68;;;;;;;;;;4135348;34;20146;-68
2021/12/17 15:24:44;;;;;;;5.00;4.50;;;;;;;;;;4134807;34;20113;-69
2021/12/17 15:27:13;;;;;;;4.68;4.25;;;;;;;;;;4134946;34;20774;-68
2021/12/17 15:29:39;;;;;;;5.32;4.82;;;;;;;;;;4134734;34;20131;-68
2021/12/17 15:32:07;;;;;;;4.68;4.28;;;;;;;;;;4135850;34;20611;-69
2021/12/17 15:34:33;;;;;;;5.00;4.50;;;;;;;;;;4101542;34;20202;-69
2021/12/17 15:36:59;;;;;;;5.68;5.18;;;;;;;;;;4136307;34;20115;-69
2021/12/17 15:39:26;;;;;;;6.20;5.57;;;;;;;;;;4136121;34;20562;-69
2021/12/17 15:41:54;;;;;;;5.85;5.07;;;;;;;;;;4124025;34;20107;-70
2021/12/17 15:44:20;;;;;;;5.47;4.68;;;;;;;;;;4090798;34;20126;-69
2021/12/17 15:46:46;;;;;;;4.72;4.20;;;;;;;;;;4136111;34;20548;-69
2021/12/17 15:49:13;;;;;;;6.07;4.90;;;;;;;;;;4136046;34;20112;-70
2021/12/17 15:51:39;;;;;;;4.95;4.12;;;;;;;;;;4112439;34;20123;-70
2021/12/17 15:54:05;;;;;;;5.05;4.55;;;;;;;;;;4111379;34;20111;-70
2021/12/17 15:56:32;;;;;;;5.28;4.65;;;;;;;;;;4123506;34;20219;-70
2021/12/17 15:58:59;;;;;;;5.43;4.82;;;;;;;;;;4136119;34;20106;-66
2021/12/17 16:01:25;;;;;;;5.65;5.05;;;;;;;;;;4123110;34;20127;-68
2021/12/17 16:03:51;;;;;;;5.00;4.50;;;;;;;;;;4135246;34;20555;-70
2021/12/17 16:06:18;;;;;;;6.50;5.22;;;;;;;;;;4135604;34;20112;-70
2021/12/17 16:08:48;;;;;;;5.72;5.15;;;;;;;;;;4135724;34;20127;-70
2021/12/17 16:21:56;;;;;;;5.78;5.18;;;;;;;;;;4135758;34;20099;-63
2021/12/17 16:24:23;;;;;;;5.82;5.20;;;;;;;;;;4123036;34;20139;-62
2021/12/17 16:26:49;;;;;;;6.60;5.05;;;;;;;;;;4135920;34;20111;-63
2021/12/17 16:29:18;;;;;;;6.78;5.18;;;;;;;;;;4135473;34;20217;-63
2021/12/17 16:31:47;;;;;;;5.68;5.12;;;;;;;;;;4135635;34;20120;-64
2021/12/17 16:34:13;;;;;;;5.45;4.60;;;;;;;;;;4123457;34;20119;-63
2021/12/17 16:36:40;;;;;;;5.80;4.95;;;;;;;;;;4135684;34;20100;-63
2021/12/17 16:39:08;;;;;;;5.65;5.05;;;;;;;;;;4136085;34;20099;-64
2021/12/17 16:41:34;;;;;;;5.47;4.93;;;;;;;;;;4135623;34;20114;-63
2021/12/17 16:44:06;;;;;;;6.37;5.10;;;;;;;;;;4134405;34;20193;-64
2021/12/17 16:49:05;;;;;;;5.47;4.90;;;;;;;;;;4135684;34;20168;-64
2021/12/17 16:51:31;;;;;;;5.55;4.85;;;;;;;;;;4135646;34;20212;-64
2021/12/17 16:53:57;;;;;;;7.22;5.20;;;;;;;;;;4135596;34;20119;-66
2021/12/17 16:56:24;;;;;;;6.00;5.32;;;;;;;;;;4135379;34;20099;-65
2021/12/17 16:58:50;;;;;;;6.53;5.10;;;;;;;;;;4135545;34;20228;-65
2021/12/17 17:01:16;;;;;;;5.43;4.50;;;;;;;;;;4135279;34;20100;-65
2021/12/17 17:03:43;;;;;;;6.85;5.87;;;;;;;;;;4135711;34;20111;-66
2021/12/17 17:06:10;;;;;;;5.80;5.20;;;;;;;;;;4135471;34;20479;-67
2021/12/17 17:08:36;;;;;;;5.53;4.80;;;;;;;;;;4101162;34;20139;-69
2021/12/17 17:11:03;;;;;;;6.97;5.82;;;;;;;;;;4123340;34;20112;-63
2021/12/17 17:13:30;;;;;;;8.18;5.50;;;;;;;;;;4135413;34;20110;-63
2021/12/17 17:15:57;;;;;;;5.80;5.12;;;;;;;;;;4135535;34;20630;-64
2021/12/17 17:18:23;;;;;;;6.97;5.75;;;;;;;;;;4134956;34;20114;-64
2021/12/17 17:20:49;;;;;;;5.97;5.37;;;;;;;;;;4121564;34;20225;-63
2021/12/17 17:23:15;;;;;;;14.60;12.52;;;;;;;;;;4099582;34;20199;-62
2021/12/17 17:25:41;;;;;;;18.73;10.77;;;;;;;;;;4134035;34;20540;-63
2021/12/17 17:28:08;;;;;;;10.23;8.73;;;;;;;;;;4134229;34;20115;-65
2021/12/17 17:30:36;;;;;;;8.23;6.75;;;;;;;;;;4133675;34;20116;-64
2021/12/17 17:33:03;;;;;;;6.50;5.72;;;;;;;;;;4133902;34;20104;-65
2021/12/17 17:35:30;;;;;;;7.65;6.30;;;;;;;;;;4122418;34;20115;-63
2021/12/17 17:37:56;;;;;;;6.90;5.95;;;;;;;;;;4123731;34;20115;-64
2021/12/17 17:40:22;;;;;;;7.53;6.53;;;;;;;;;;4137422;34;20111;-68
2021/12/17 17:42:50;;;;;;;6.62;5.55;;;;;;;;;;4124659;34;20532;-68
2021/12/17 17:45:17;;;;;;;6.18;5.57;;;;;;;;;;4113955;34;20207;-68
2021/12/17 17:47:51;;;;;;;5.90;5.25;;;;;;;;;;4137112;34;20099;-67
2021/12/17 17:50:17;;;;;;;5.55;5.00;;;;;;;;;;4137330;34;20115;-68
2021/12/17 17:52:44;;;;;;;6.35;5.30;;;;;;;;;;4124916;34;20180;-68
2021/12/17 17:55:10;;;;;;;6.53;5.45;;;;;;;;;;4137186;34;20099;-64
2021/12/17 17:57:36;;;;;;;5.90;5.05;;;;;;;;;;4137451;34;20185;-64
2021/12/17 18:00:05;;;;;;;6.07;5.32;;;;;;;;;;4137268;34;20184;-66
2021/12/17 18:02:31;;;;;;;6.22;5.55;;;;;;;;;;4135974;34;20605;-66
2021/12/17 18:04:58;;;;;;;5.20;4.53;;;;;;;;;;4137134;34;20127;-67
2021/12/17 18:07:24;;;;;;;5.15;4.65;;;;;;;;;;4137585;34;20092;-65
2021/12/17 18:09:50;;;;;;;6.07;5.15;;;;;;;;;;4137554;34;20114;-65
2021/12/17 18:12:16;;;;;;;5.12;4.62;;;;;;;;;;4137566;34;20531;-65
2021/12/17 18:14:42;;;;;;;6.18;5.53;;;;;;;;;;4137327;34;20617;-65
2021/12/17 18:17:08;;;;;;;6.37;5.00;;;;;;;;;;4136982;34;20205;-65
2021/12/17 18:19:35;;;;;;;6.53;5.82;;;;;;;;;;4136948;34;20116;-64
2021/12/17 18:22:02;;;;;;;6.85;6.15;;;;;;;;;;4136854;34;20189;-65
2021/12/17 18:24:28;;;;;;;6.43;5.72;;;;;;;;;;4137163;34;20123;-64
2021/12/17 18:26:54;;;;;;;6.97;5.85;;;;;;;;;;4136924;34;20129;-63
2021/12/17 18:29:20;;;;;;;6.47;5.60;;;;;;;;;;4137066;34;20145;-65
2021/12/17 18:31:46;;;;;;;5.90;5.30;;;;;;;;;;4137003;34;20099;-64
2021/12/17 18:34:12;;;;;;;8.23;7.28;;;;;;;;;;4136733;34;20106;-64
2021/12/17 18:36:39;;;;;;;8.32;7.50;;;;;;;;;;4136940;34;20103;-63
2021/12/17 18:39:05;;;;;;;8.43;7.62;;;;;;;;;;4137013;34;20175;-64
2021/12/17 18:41:42;;;;;;;13.77;11.85;;;;;;;;;;4137159;34;20194;-63
2021/12/17 18:44:11;;;;;;;10.55;9.45;;;;;;;;;;4136826;34;20106;-67
2021/12/17 18:46:49;;;;;;;10.48;9.48;;;;;;;;;;4136815;34;20103;-69
2021/12/17 18:49:17;;;;;;;7.90;7.10;;;;;;;;;;4136036;34;20099;-68
2021/12/17 18:51:43;;;;;;;7.28;6.10;;;;;;;;;;4124435;34;20103;-69